NOK196 VTBD-VTPM
Flight info
| Callsign | NOK196 |
|---|---|
| Flight time | 0h 42m |
| Altitude | 28000 |
| Route | OLVUK1B OLVUK Y26 NUVLU Y30 URGUM URGUM1W |
| Aircraft | B738/M-SDE2E3FGHIRWXY/LB1 |
Departure
| Time | 2026-05-06 20:28 |
|---|---|
| Airport | Don Mueang International Airport (VTBD) |
Arrival
| Time | 2026-05-06 21:10 |
|---|---|
| Airport | Mae Sot Airport (VTPM) |
| Time | Latitude | Longitude | Altitude | Speed | Heading |
|---|---|---|---|---|---|
| 2026-05-06 20:10 | 13.91126 | 100.59916 | 17 ft | 0 kts | 28° |
| 2026-05-06 20:19 | 13.91106 | 100.59905 | 17 ft | 8 kts | 35° |
| 2026-05-06 20:20 | 13.91086 | 100.59887 | 17 ft | 8 kts | 50° |
| 2026-05-06 20:20 | 13.91073 | 100.59865 | 17 ft | 8 kts | 90° |
| 2026-05-06 20:20 | 13.91075 | 100.59854 | 17 ft | 0 kts | 118° |
| 2026-05-06 20:22 | 13.91068 | 100.59866 | 17 ft | 8 kts | 118° |
| 2026-05-06 20:22 | 13.91053 | 100.59895 | 17 ft | 1 kts | 118° |
| 2026-05-06 20:23 | 13.91042 | 100.59916 | 17 ft | 6 kts | 118° |
| 2026-05-06 20:23 | 13.91013 | 100.59971 | 18 ft | 11 kts | 118° |
| 2026-05-06 20:23 | 13.91032 | 100.60054 | 17 ft | 12 kts | 51° |
| 2026-05-06 20:23 | 13.91005 | 100.60123 | 18 ft | 14 kts | 166° |
| 2026-05-06 20:24 | 13.90900 | 100.60078 | 17 ft | 19 kts | 208° |
| 2026-05-06 20:24 | 13.90778 | 100.60010 | 17 ft | 21 kts | 208° |
| 2026-05-06 20:24 | 13.90646 | 100.59935 | 16 ft | 23 kts | 208° |
| 2026-05-06 20:24 | 13.90502 | 100.59854 | 17 ft | 24 kts | 208° |
| 2026-05-06 20:25 | 13.90348 | 100.59768 | 16 ft | 26 kts | 209° |
| 2026-05-06 20:25 | 13.90188 | 100.59679 | 17 ft | 27 kts | 208° |
| 2026-05-06 20:25 | 13.90021 | 100.59586 | 17 ft | 28 kts | 208° |
| 2026-05-06 20:25 | 13.89867 | 100.59498 | 18 ft | 13 kts | 208° |
| 2026-05-06 20:26 | 13.89788 | 100.59458 | 18 ft | 13 kts | 197° |
| 2026-05-06 20:26 | 13.89720 | 100.59503 | 19 ft | 14 kts | 101° |
| 2026-05-06 20:26 | 13.89736 | 100.59589 | 20 ft | 10 kts | 72° |
| 2026-05-06 20:26 | 13.89768 | 100.59632 | 21 ft | 8 kts | 28° |
| 2026-05-06 20:27 | 13.89790 | 100.59644 | 20 ft | 10 kts | 28° |
| 2026-05-06 20:27 | 13.89989 | 100.59758 | 19 ft | 62 kts | 29° |
| 2026-05-06 20:27 | 13.90555 | 100.60075 | 18 ft | 121 kts | 29° |
| 2026-05-06 20:27 | 13.91444 | 100.60571 | 59 ft | 164 kts | 30° |
| 2026-05-06 20:28 | 13.92490 | 100.61111 | 637 ft | 169 kts | 27° |
| 2026-05-06 20:28 | 13.93569 | 100.61688 | 1205 ft | 182 kts | 30° |
| 2026-05-06 20:28 | 13.94721 | 100.62337 | 1739 ft | 196 kts | 30° |
| 2026-05-06 20:28 | 13.95995 | 100.63014 | 2299 ft | 212 kts | 30° |
| 2026-05-06 20:29 | 13.97410 | 100.63611 | 2777 ft | 233 kts | 5° |
| 2026-05-06 20:29 | 13.98999 | 100.63210 | 3523 ft | 246 kts | 326° |
| 2026-05-06 20:29 | 14.00242 | 100.61957 | 4242 ft | 259 kts | 307° |
| 2026-05-06 20:29 | 14.01253 | 100.60385 | 4875 ft | 275 kts | 300° |
| 2026-05-06 20:30 | 14.02234 | 100.58660 | 5658 ft | 283 kts | 301° |
| 2026-05-06 20:30 | 14.04420 | 100.55211 | 7379 ft | 292 kts | 306° |
| 2026-05-06 20:30 | 14.05605 | 100.53496 | 8234 ft | 295 kts | 307° |
| 2026-05-06 20:31 | 14.06804 | 100.51762 | 9058 ft | 299 kts | 307° |
| 2026-05-06 20:31 | 14.08039 | 100.50019 | 9858 ft | 303 kts | 308° |
| 2026-05-06 20:31 | 14.09314 | 100.48254 | 10432 ft | 316 kts | 308° |
| 2026-05-06 20:31 | 14.10659 | 100.46390 | 10847 ft | 332 kts | 307° |
| 2026-05-06 20:32 | 14.12059 | 100.44434 | 11355 ft | 344 kts | 307° |
| 2026-05-06 20:32 | 14.13483 | 100.42429 | 12059 ft | 349 kts | 307° |
| 2026-05-06 20:32 | 14.14925 | 100.40396 | 12772 ft | 354 kts | 307° |
| 2026-05-06 20:32 | 14.16388 | 100.38339 | 13492 ft | 358 kts | 307° |
| 2026-05-06 20:33 | 14.17868 | 100.36262 | 14207 ft | 361 kts | 307° |
| 2026-05-06 20:33 | 14.19365 | 100.34165 | 14912 ft | 365 kts | 308° |
| 2026-05-06 20:33 | 14.21132 | 100.32273 | 15597 ft | 368 kts | 322° |
| 2026-05-06 20:33 | 14.23316 | 100.30904 | 16272 ft | 370 kts | 338° |
| 2026-05-06 20:34 | 14.25792 | 100.30186 | 16938 ft | 371 kts | 351° |
| 2026-05-06 20:34 | 14.28323 | 100.29788 | 17559 ft | 375 kts | 353° |
| 2026-05-06 20:34 | 14.30921 | 100.29440 | 18181 ft | 379 kts | 354° |
| 2026-05-06 20:34 | 14.33549 | 100.29099 | 18791 ft | 382 kts | 354° |
| 2026-05-06 20:35 | 14.36203 | 100.28735 | 19375 ft | 386 kts | 353° |
| 2026-05-06 20:35 | 14.38876 | 100.28344 | 19938 ft | 390 kts | 353° |
| 2026-05-06 20:35 | 14.41571 | 100.27943 | 20481 ft | 393 kts | 353° |
| 2026-05-06 20:35 | 14.44292 | 100.27544 | 21003 ft | 397 kts | 353° |
| 2026-05-06 20:36 | 14.47032 | 100.27098 | 21498 ft | 401 kts | 348° |
| 2026-05-06 20:36 | 14.49723 | 100.26305 | 21995 ft | 405 kts | 344° |
| 2026-05-06 20:36 | 14.52430 | 100.25452 | 22461 ft | 408 kts | 343° |
| 2026-05-06 20:36 | 14.55148 | 100.24568 | 22912 ft | 411 kts | 343° |
| 2026-05-06 20:37 | 14.57889 | 100.23669 | 23351 ft | 415 kts | 343° |
| 2026-05-06 20:37 | 14.60647 | 100.22770 | 23776 ft | 418 kts | 343° |
| 2026-05-06 20:37 | 14.63433 | 100.21872 | 24194 ft | 420 kts | 343° |
| 2026-05-06 20:37 | 14.66231 | 100.20975 | 24602 ft | 423 kts | 343° |
| 2026-05-06 20:38 | 14.69051 | 100.20055 | 25011 ft | 425 kts | 343° |
| 2026-05-06 20:38 | 14.71870 | 100.19112 | 25408 ft | 427 kts | 342° |
| 2026-05-06 20:38 | 14.74703 | 100.18156 | 25803 ft | 429 kts | 342° |
| 2026-05-06 20:38 | 14.77548 | 100.17201 | 26186 ft | 431 kts | 342° |
| 2026-05-06 20:39 | 14.80408 | 100.16251 | 26557 ft | 433 kts | 342° |
| 2026-05-06 20:39 | 14.83246 | 100.15312 | 26975 ft | 433 kts | 342° |
| 2026-05-06 20:39 | 14.86104 | 100.14365 | 27483 ft | 431 kts | 342° |
| 2026-05-06 20:39 | 14.88957 | 100.13415 | 27850 ft | 432 kts | 342° |
| 2026-05-06 20:40 | 14.91835 | 100.12454 | 27854 ft | 434 kts | 342° |
| 2026-05-06 20:40 | 14.94696 | 100.11499 | 27858 ft | 429 kts | 342° |
| 2026-05-06 20:40 | 14.97533 | 100.10553 | 27861 ft | 428 kts | 342° |
| 2026-05-06 20:40 | 15.00369 | 100.09609 | 27863 ft | 428 kts | 342° |
| 2026-05-06 20:41 | 15.03200 | 100.08666 | 27869 ft | 427 kts | 342° |
| 2026-05-06 20:41 | 15.06030 | 100.07724 | 27871 ft | 426 kts | 342° |
| 2026-05-06 20:41 | 15.08854 | 100.06783 | 27873 ft | 426 kts | 342° |
| 2026-05-06 20:41 | 15.11678 | 100.05842 | 27872 ft | 426 kts | 342° |
| 2026-05-06 20:42 | 15.14498 | 100.04901 | 27873 ft | 426 kts | 342° |
| 2026-05-06 20:42 | 15.17324 | 100.03959 | 27873 ft | 426 kts | 342° |
| 2026-05-06 20:42 | 15.20144 | 100.03018 | 27873 ft | 426 kts | 342° |
| 2026-05-06 20:42 | 15.22966 | 100.02077 | 27874 ft | 426 kts | 342° |
| 2026-05-06 20:43 | 15.25786 | 100.01136 | 27874 ft | 426 kts | 342° |
| 2026-05-06 20:43 | 15.28605 | 100.00194 | 27874 ft | 426 kts | 342° |
| 2026-05-06 20:43 | 15.31420 | 99.99254 | 27874 ft | 426 kts | 342° |
| 2026-05-06 20:43 | 15.34198 | 99.98326 | 27879 ft | 423 kts | 342° |
| 2026-05-06 20:44 | 15.37004 | 99.97388 | 27881 ft | 423 kts | 342° |
| 2026-05-06 20:44 | 15.39812 | 99.96450 | 27882 ft | 424 kts | 342° |
| 2026-05-06 20:44 | 15.42615 | 99.95513 | 27881 ft | 424 kts | 342° |
| 2026-05-06 20:44 | 15.45425 | 99.94573 | 27880 ft | 424 kts | 342° |
| 2026-05-06 20:45 | 15.48231 | 99.93635 | 27883 ft | 424 kts | 342° |
| 2026-05-06 20:45 | 15.51038 | 99.92695 | 27882 ft | 424 kts | 342° |
| 2026-05-06 20:45 | 15.53845 | 99.91756 | 27882 ft | 424 kts | 342° |
| 2026-05-06 20:45 | 15.56652 | 99.90816 | 27882 ft | 424 kts | 342° |
| 2026-05-06 20:46 | 15.59454 | 99.89878 | 27882 ft | 424 kts | 342° |
| 2026-05-06 20:46 | 15.62259 | 99.88938 | 27882 ft | 424 kts | 342° |
| 2026-05-06 20:46 | 15.65068 | 99.87997 | 27882 ft | 424 kts | 342° |
| 2026-05-06 20:46 | 15.67871 | 99.87057 | 27883 ft | 424 kts | 342° |
| 2026-05-06 20:47 | 15.70677 | 99.86116 | 27882 ft | 424 kts | 342° |
| 2026-05-06 20:47 | 15.73479 | 99.85177 | 27887 ft | 423 kts | 342° |
| 2026-05-06 20:47 | 15.76286 | 99.84235 | 27889 ft | 424 kts | 342° |
| 2026-05-06 20:47 | 15.79091 | 99.83294 | 27891 ft | 424 kts | 342° |
| 2026-05-06 20:48 | 15.81897 | 99.82352 | 27891 ft | 424 kts | 342° |
| 2026-05-06 20:48 | 15.84698 | 99.81411 | 27892 ft | 424 kts | 342° |
| 2026-05-06 20:48 | 15.86559 | 99.80786 | 27892 ft | 423 kts | 342° |
| 2026-05-06 20:48 | 15.89365 | 99.79844 | 27899 ft | 423 kts | 342° |
| 2026-05-06 20:49 | 15.92168 | 99.78902 | 27899 ft | 424 kts | 342° |
| 2026-05-06 20:49 | 15.94976 | 99.77958 | 27901 ft | 424 kts | 342° |
| 2026-05-06 20:49 | 15.98707 | 99.76703 | 27416 ft | 421 kts | 342° |
| 2026-05-06 20:49 | 16.00545 | 99.76085 | 27061 ft | 417 kts | 342° |
| 2026-05-06 20:50 | 16.04166 | 99.74867 | 26389 ft | 408 kts | 342° |
| 2026-05-06 20:50 | 16.06851 | 99.73963 | 25887 ft | 402 kts | 342° |
| 2026-05-06 20:50 | 16.08640 | 99.73361 | 25548 ft | 398 kts | 342° |
| 2026-05-06 20:50 | 16.11259 | 99.72479 | 25047 ft | 393 kts | 342° |
| 2026-05-06 20:51 | 16.13851 | 99.71606 | 24541 ft | 390 kts | 342° |
| 2026-05-06 20:51 | 16.16429 | 99.70738 | 24049 ft | 394 kts | 342° |
| 2026-05-06 20:51 | 16.19078 | 99.69845 | 23551 ft | 402 kts | 342° |
| 2026-05-06 20:51 | 16.21737 | 99.68949 | 23052 ft | 402 kts | 342° |
| 2026-05-06 20:52 | 16.24398 | 99.68051 | 22555 ft | 402 kts | 342° |
| 2026-05-06 20:52 | 16.27043 | 99.67159 | 22180 ft | 398 kts | 342° |
| 2026-05-06 20:52 | 16.29659 | 99.66276 | 21912 ft | 392 kts | 342° |
| 2026-05-06 20:52 | 16.32233 | 99.65407 | 21661 ft | 385 kts | 342° |
| 2026-05-06 20:53 | 16.34761 | 99.64554 | 21408 ft | 379 kts | 342° |
| 2026-05-06 20:53 | 16.37254 | 99.63713 | 21144 ft | 374 kts | 342° |
| 2026-05-06 20:53 | 16.39732 | 99.62877 | 20760 ft | 373 kts | 342° |
| 2026-05-06 20:53 | 16.42163 | 99.62057 | 20382 ft | 371 kts | 342° |
| 2026-05-06 20:54 | 16.44611 | 99.61231 | 20012 ft | 369 kts | 342° |
| 2026-05-06 20:54 | 16.47042 | 99.60410 | 19639 ft | 366 kts | 342° |
| 2026-05-06 20:54 | 16.49458 | 99.59594 | 19267 ft | 364 kts | 342° |
| 2026-05-06 20:54 | 16.51857 | 99.58783 | 18888 ft | 361 kts | 342° |
| 2026-05-06 20:55 | 16.54238 | 99.57979 | 18512 ft | 358 kts | 342° |
| 2026-05-06 20:55 | 16.56602 | 99.57180 | 18136 ft | 356 kts | 342° |
| 2026-05-06 20:55 | 16.58946 | 99.56387 | 17760 ft | 353 kts | 342° |
| 2026-05-06 20:55 | 16.61271 | 99.55601 | 17386 ft | 350 kts | 342° |
| 2026-05-06 20:56 | 16.63586 | 99.54818 | 17009 ft | 347 kts | 342° |
| 2026-05-06 20:56 | 16.65876 | 99.54043 | 16634 ft | 344 kts | 342° |
| 2026-05-06 20:56 | 16.68146 | 99.53274 | 16258 ft | 341 kts | 342° |
| 2026-05-06 20:56 | 16.70394 | 99.52513 | 15891 ft | 338 kts | 342° |
| 2026-05-06 20:57 | 16.72607 | 99.51757 | 15651 ft | 331 kts | 340° |
| 2026-05-06 20:57 | 16.74500 | 99.50477 | 15398 ft | 324 kts | 312° |
| 2026-05-06 20:57 | 16.75688 | 99.48543 | 15173 ft | 320 kts | 297° |
| 2026-05-06 20:57 | 16.76658 | 99.46460 | 14929 ft | 318 kts | 295° |
| 2026-05-06 20:58 | 16.77354 | 99.44282 | 14670 ft | 317 kts | 276° |
| 2026-05-06 20:58 | 16.77264 | 99.41997 | 14435 ft | 317 kts | 262° |
| 2026-05-06 20:58 | 16.76946 | 99.39726 | 14185 ft | 316 kts | 263° |
| 2026-05-06 20:58 | 16.76725 | 99.37454 | 13934 ft | 314 kts | 266° |
| 2026-05-06 20:59 | 16.76557 | 99.35186 | 13684 ft | 313 kts | 266° |
| 2026-05-06 20:59 | 16.76379 | 99.32928 | 13429 ft | 311 kts | 266° |
| 2026-05-06 20:59 | 16.76192 | 99.30682 | 13183 ft | 310 kts | 265° |
| 2026-05-06 20:59 | 16.76006 | 99.28444 | 12931 ft | 309 kts | 266° |
| 2026-05-06 21:00 | 16.75822 | 99.26217 | 12680 ft | 308 kts | 266° |
| 2026-05-06 21:00 | 16.75638 | 99.23994 | 12432 ft | 307 kts | 266° |
| 2026-05-06 21:00 | 16.75455 | 99.21782 | 12190 ft | 306 kts | 266° |
| 2026-05-06 21:00 | 16.75273 | 99.19576 | 11933 ft | 304 kts | 266° |
| 2026-05-06 21:01 | 16.75090 | 99.17380 | 11682 ft | 303 kts | 266° |
| 2026-05-06 21:01 | 16.74909 | 99.15195 | 11435 ft | 302 kts | 265° |
| 2026-05-06 21:01 | 16.74728 | 99.13013 | 11183 ft | 301 kts | 265° |
| 2026-05-06 21:01 | 16.74547 | 99.10841 | 10931 ft | 300 kts | 265° |
| 2026-05-06 21:02 | 16.74367 | 99.08675 | 10688 ft | 299 kts | 265° |
| 2026-05-06 21:02 | 16.74188 | 99.06517 | 10444 ft | 298 kts | 265° |
| 2026-05-06 21:02 | 16.74011 | 99.04397 | 10191 ft | 297 kts | 265° |
| 2026-05-06 21:02 | 16.73832 | 99.02252 | 9943 ft | 296 kts | 265° |
| 2026-05-06 21:03 | 16.73654 | 99.00113 | 9694 ft | 295 kts | 265° |
| 2026-05-06 21:03 | 16.73476 | 98.97984 | 9444 ft | 294 kts | 265° |
| 2026-05-06 21:03 | 16.73298 | 98.95859 | 9192 ft | 292 kts | 265° |
| 2026-05-06 21:03 | 16.73122 | 98.93751 | 8945 ft | 292 kts | 265° |
| 2026-05-06 21:04 | 16.72946 | 98.91652 | 8696 ft | 288 kts | 264° |
| 2026-05-06 21:04 | 16.72773 | 98.89583 | 8321 ft | 284 kts | 264° |
| 2026-05-06 21:04 | 16.72603 | 98.87552 | 7911 ft | 279 kts | 264° |
| 2026-05-06 21:04 | 16.72431 | 98.85508 | 7146 ft | 286 kts | 264° |
| 2026-05-06 21:05 | 16.72257 | 98.83432 | 6400 ft | 289 kts | 264° |
| 2026-05-06 21:05 | 16.72082 | 98.81342 | 5655 ft | 290 kts | 264° |
| 2026-05-06 21:05 | 16.71905 | 98.79236 | 4909 ft | 291 kts | 264° |
| 2026-05-06 21:05 | 16.71730 | 98.77158 | 4436 ft | 283 kts | 264° |
| 2026-05-06 21:06 | 16.71564 | 98.75186 | 4159 ft | 269 kts | 264° |
| 2026-05-06 21:06 | 16.71405 | 98.73296 | 3899 ft | 256 kts | 264° |
| 2026-05-06 21:06 | 16.71252 | 98.71484 | 3638 ft | 245 kts | 264° |
| 2026-05-06 21:06 | 16.71105 | 98.69746 | 3534 ft | 235 kts | 264° |
| 2026-05-06 21:07 | 16.70965 | 98.68101 | 3427 ft | 216 kts | 264° |
| 2026-05-06 21:07 | 16.70837 | 98.66582 | 3027 ft | 208 kts | 264° |
| 2026-05-06 21:07 | 16.70710 | 98.65085 | 2534 ft | 202 kts | 263° |
| 2026-05-06 21:07 | 16.70594 | 98.63702 | 2332 ft | 174 kts | 264° |
| 2026-05-06 21:08 | 16.70472 | 98.62561 | 2186 ft | 146 kts | 259° |
| 2026-05-06 21:08 | 16.70267 | 98.61550 | 1802 ft | 146 kts | 257° |
| 2026-05-06 21:08 | 16.70115 | 98.60512 | 1584 ft | 144 kts | 262° |
| 2026-05-06 21:08 | 16.70042 | 98.59490 | 1366 ft | 141 kts | 270° |
| 2026-05-06 21:09 | 16.70046 | 98.58477 | 1184 ft | 138 kts | 267° |
| 2026-05-06 21:09 | 16.70019 | 98.57488 | 1004 ft | 135 kts | 268° |
| 2026-05-06 21:09 | 16.70008 | 98.56511 | 800 ft | 134 kts | 271° |
| 2026-05-06 21:09 | 16.70000 | 98.55574 | 689 ft | 111 kts | 269° |
| 2026-05-06 21:10 | 16.69992 | 98.55007 | 688 ft | 47 kts | 270° |
| 2026-05-06 21:10 | 16.69988 | 98.54786 | 690 ft | 19 kts | 268° |
| 2026-05-06 21:10 | 16.69988 | 98.54685 | 688 ft | 10 kts | 276° |
| 2026-05-06 21:10 | 16.70027 | 98.54637 | 692 ft | 9 kts | 341° |
| 2026-05-06 21:11 | 16.70087 | 98.54632 | 686 ft | 4 kts | 359° |
| 2026-05-06 21:11 | 16.70091 | 98.54632 | 692 ft | 1 kts | 360° |
| 2026-05-06 21:11 | 16.70104 | 98.54632 | 687 ft | 4 kts | 0° |
| 2026-05-06 21:11 | 16.70141 | 98.54621 | 692 ft | 8 kts | 319° |
| 2026-05-06 21:12 | 16.70153 | 98.54577 | 685 ft | 4 kts | 273° |
| 2026-05-06 21:12 | 16.70164 | 98.54547 | 692 ft | 5 kts | 322° |
| 2026-05-06 21:12 | 16.70185 | 98.54542 | 692 ft | 3 kts | 358° |
| 2026-05-06 21:12 | 16.70199 | 98.54542 | 692 ft | 0 kts | 359° |
| 2026-05-06 21:13 | 16.70202 | 98.54542 | 692 ft | 0 kts | 359° |